PWSweather.com
Personal Weather Stations
Station Observations

TilburgNL

Lat: 51.5791595, Lon: 5.0102304

Elevation: 27.9

Station Type: La-crosse WS 2800

http://www.weerstationtilburgreeshof.nl/

Latest ConditionsUpdated 11:25:21 PM GMT+01:01 Sunday, Jan 20, 2019
Currently Today's Max Today's Min Today's Average
Temperature 25.2°F-3.8°C 37.9°F3.3°C 24.4°F-4.2°C 29.2°F-1.6°C
Dew Point 21.0°F-6.1°C 28.0°F-2.2°C 20.7°F-6.3°C 23.7°F-4.6°C
Winds 0.1 mph SE0.2 kmh SE 3.6 mph -5.8 kmh - - 1.1 mph 1.8 kmh
Wind Gusts 0.4 mph0.6 kmh 6.9 mph11.1 kmh - -
Humidity 84% 87% 65% 80%
Pressure 30.19 in1022.4 mb 30.20 in1022.7 mb 29.93 in1013.5 mb -
Hour Temp Dew Point Humidity Winds Wind Gusts Pressure Precip Precip Rate Daily Precip Total
11:25 PM 25.2°F-3.8°C 21.0°F-6.1°C 84% 0.1 mph SE0.2 kmh SE 0.4 mph0.6 kmh 30.19 in1022.4 mb 0.00 in0.0 mm 0.00 in0.0 mm 0.00 in0.0 mm
11:20 PM 25.2°F-3.8°C 21.0°F-6.1°C 84% 0.2 mph S0.3 kmh S 0.4 mph0.6 kmh 30.19 in1022.4 mb 0.00 in0.0 mm 0.00 in0.0 mm 0.00 in0.0 mm
11:15 PM 25.2°F-3.8°C 20.8°F-6.2°C 83% 0.1 mph SSW0.2 kmh SSW 0.4 mph0.6 kmh 30.19 in1022.4 mb 0.00 in0.0 mm 0.00 in0.0 mm 0.00 in0.0 mm
11:10 PM 25.3°F-3.7°C 21.0°F-6.1°C 83% Calm Calm -- 30.20 in1022.7 mb 0.00 in0.0 mm 0.00 in0.0 mm 0.00 in0.0 mm
11:05 PM 25.5°F-3.6°C 21.0°F-6.1°C 83% Calm Calm -- 30.19 in1022.4 mb 0.00 in0.0 mm 0.00 in0.0 mm 0.00 in0.0 mm
11:00 PM 25.7°F-3.5°C 21.2°F-6.0°C 83% Calm Calm -- 30.19 in1022.4 mb 0.00 in0.0 mm 0.00 in0.0 mm 0.00 in0.0 mm
10:55 PM 25.7°F-3.5°C 21.2°F-6.0°C 83% Calm Calm -- 30.19 in1022.4 mb 0.00 in0.0 mm 0.00 in0.0 mm 0.00 in0.0 mm
10:50 PM 25.9°F-3.4°C 21.2°F-6.0°C 82% 0.3 mph SSW0.5 kmh SSW 1.1 mph1.8 kmh 30.19 in1022.4 mb 0.00 in0.0 mm 0.00 in0.0 mm 0.00 in0.0 mm
10:45 PM 26.1°F-3.3°C 21.4°F-5.9°C 82% 0.8 mph ESE1.3 kmh ESE 1.3 mph2.1 kmh 30.19 in1022.4 mb 0.00 in0.0 mm 0.00 in0.0 mm 0.00 in0.0 mm
10:40 PM 26.2°F-3.2°C 21.7°F-5.7°C 83% 0.6 mph E1.0 kmh E 1.3 mph2.1 kmh 30.18 in1022.0 mb 0.00 in0.0 mm 0.00 in0.0 mm 0.00 in0.0 mm
10:35 PM 26.2°F-3.2°C 21.7°F-5.7°C 83% 0.1 mph ENE0.2 kmh ENE 0.9 mph1.4 kmh 30.19 in1022.4 mb 0.00 in0.0 mm 0.00 in0.0 mm 0.00 in0.0 mm
10:30 PM 26.6°F-3.0°C 22.3°F-5.4°C 83% Calm Calm -- 30.19 in1022.4 mb 0.00 in0.0 mm 0.00 in0.0 mm 0.00 in0.0 mm
10:25 PM 26.6°F-3.0°C 22.3°F-5.4°C 83% Calm Calm -- 30.19 in1022.4 mb 0.00 in0.0 mm 0.00 in0.0 mm 0.00 in0.0 mm
10:20 PM 27.0°F-2.8°C 22.5°F-5.3°C 83% Calm Calm -- 30.19 in1022.4 mb 0.00 in0.0 mm 0.00 in0.0 mm 0.00 in0.0 mm
10:15 PM 27.0°F-2.8°C 22.5°F-5.3°C 83% Calm Calm -- 30.19 in1022.4 mb 0.00 in0.0 mm 0.00 in0.0 mm 0.00 in0.0 mm
10:10 PM 27.3°F-2.6°C 22.5°F-5.3°C 82% 0.2 mph ENE0.3 kmh ENE 0.7 mph1.1 kmh 30.19 in1022.4 mb 0.00 in0.0 mm 0.00 in0.0 mm 0.00 in0.0 mm
10:05 PM 27.5°F-2.5°C 22.6°F-5.2°C 82% 0.3 mph ENE0.5 kmh ENE 0.7 mph1.1 kmh 30.19 in1022.4 mb 0.00 in0.0 mm 0.00 in0.0 mm 0.00 in0.0 mm
10:00 PM 27.5°F-2.5°C 22.6°F-5.2°C 82% Calm Calm 0.4 mph0.6 kmh 30.19 in1022.4 mb 0.00 in0.0 mm 0.00 in0.0 mm 0.00 in0.0 mm
09:55 PM 27.7°F-2.4°C 22.8°F-5.1°C 82% 0.1 mph 0.2 kmh -- 30.19 in1022.4 mb 0.00 in0.0 mm 0.00 in0.0 mm 0.00 in0.0 mm
09:50 PM 27.7°F-2.4°C 22.8°F-5.1°C 82% 0.1 mph ENE0.2 kmh ENE 0.7 mph1.1 kmh 30.19 in1022.4 mb 0.00 in0.0 mm 0.00 in0.0 mm 0.00 in0.0 mm
09:45 PM 27.9°F-2.3°C 23.0°F-5.0°C 82% 0.1 mph ENE0.2 kmh ENE 0.7 mph1.1 kmh 30.18 in1022.0 mb 0.00 in0.0 mm 0.00 in0.0 mm 0.00 in0.0 mm
09:40 PM 27.9°F-2.3°C 23.0°F-5.0°C 82% 0.3 mph ENE0.5 kmh ENE 1.1 mph1.8 kmh 30.19 in1022.4 mb 0.00 in0.0 mm 0.00 in0.0 mm 0.00 in0.0 mm
09:35 PM 28.0°F-2.2°C 23.2°F-4.9°C 82% 0.4 mph ENE0.6 kmh ENE 1.1 mph1.8 kmh 30.18 in1022.0 mb 0.00 in0.0 mm 0.00 in0.0 mm 0.00 in0.0 mm
09:30 PM 28.0°F-2.2°C 23.0°F-5.0°C 81% 0.1 mph ENE0.2 kmh ENE 1.1 mph1.8 kmh 30.18 in1022.0 mb 0.00 in0.0 mm 0.00 in0.0 mm 0.00 in0.0 mm
09:25 PM 28.0°F-2.2°C 23.0°F-5.0°C 81% Calm Calm -- 30.18 in1022.0 mb 0.00 in0.0 mm 0.00 in0.0 mm 0.00 in0.0 mm
09:20 PM 28.0°F-2.2°C 23.0°F-5.0°C 81% 0.1 mph 0.2 kmh -- 30.18 in1022.0 mb 0.00 in0.0 mm 0.00 in0.0 mm 0.00 in0.0 mm
09:15 PM 28.0°F-2.2°C 23.0°F-5.0°C 81% 0.1 mph ENE0.2 kmh ENE 0.7 mph1.1 kmh 30.17 in1021.7 mb 0.00 in0.0 mm 0.00 in0.0 mm 0.00 in0.0 mm
09:10 PM 28.0°F-2.2°C 23.0°F-5.0°C 81% 0.2 mph ENE0.3 kmh ENE 0.7 mph1.1 kmh 30.17 in1021.7 mb 0.00 in0.0 mm 0.00 in0.0 mm 0.00 in0.0 mm
09:05 PM 28.0°F-2.2°C 23.0°F-5.0°C 81% 0.1 mph ENE0.2 kmh ENE 0.7 mph1.1 kmh 30.17 in1021.7 mb 0.00 in0.0 mm 0.00 in0.0 mm 0.00 in0.0 mm
09:00 PM 28.2°F-2.1°C 23.2°F-4.9°C 81% Calm Calm -- 30.17 in1021.7 mb 0.00 in0.0 mm 0.00 in0.0 mm 0.00 in0.0 mm
08:55 PM 28.2°F-2.1°C 22.8°F-5.1°C 80% Calm Calm -- 30.17 in1021.7 mb 0.00 in0.0 mm 0.00 in0.0 mm 0.00 in0.0 mm
08:50 PM 28.2°F-2.1°C 22.8°F-5.1°C 80% 0.4 mph ENE0.6 kmh ENE 1.8 mph2.9 kmh 30.17 in1021.7 mb 0.00 in0.0 mm 0.00 in0.0 mm 0.00 in0.0 mm
08:45 PM 28.2°F-2.1°C 22.8°F-5.1°C 80% 0.6 mph ENE1.0 kmh ENE 1.8 mph2.9 kmh 30.17 in1021.7 mb 0.00 in0.0 mm 0.00 in0.0 mm 0.00 in0.0 mm
08:40 PM 28.0°F-2.2°C 22.6°F-5.2°C 80% 0.4 mph ENE0.6 kmh ENE 0.9 mph1.4 kmh 30.17 in1021.7 mb 0.00 in0.0 mm 0.00 in0.0 mm 0.00 in0.0 mm
08:35 PM 28.2°F-2.1°C 22.6°F-5.2°C 79% 0.6 mph ENE1.0 kmh ENE 1.3 mph2.1 kmh 30.17 in1021.7 mb 0.00 in0.0 mm 0.00 in0.0 mm 0.00 in0.0 mm
08:30 PM 28.4°F-2.0°C 22.8°F-5.1°C 79% 0.4 mph ENE0.6 kmh ENE 1.3 mph2.1 kmh 30.16 in1021.3 mb 0.00 in0.0 mm 0.00 in0.0 mm 0.00 in0.0 mm
08:25 PM 28.4°F-2.0°C 22.8°F-5.1°C 79% 0.3 mph ENE0.5 kmh ENE 0.7 mph1.1 kmh 30.16 in1021.3 mb 0.00 in0.0 mm 0.00 in0.0 mm 0.00 in0.0 mm
08:20 PM 28.6°F-1.9°C 23.0°F-5.0°C 79% 0.5 mph ENE0.8 kmh ENE 0.7 mph1.1 kmh 30.16 in1021.3 mb 0.00 in0.0 mm 0.00 in0.0 mm 0.00 in0.0 mm
08:15 PM 28.6°F-1.9°C 23.0°F-5.0°C 79% 0.9 mph ENE1.4 kmh ENE 1.3 mph2.1 kmh 30.16 in1021.3 mb 0.00 in0.0 mm 0.00 in0.0 mm 0.00 in0.0 mm
08:10 PM 28.8°F-1.8°C 23.2°F-4.9°C 79% 1.5 mph NE2.4 kmh NE 2.5 mph4.0 kmh 30.16 in1021.3 mb 0.00 in0.0 mm 0.00 in0.0 mm 0.00 in0.0 mm
08:05 PM 28.8°F-1.8°C 23.2°F-4.9°C 79% 1.3 mph NNE2.1 kmh NNE 2.5 mph4.0 kmh 30.16 in1021.3 mb 0.00 in0.0 mm 0.00 in0.0 mm 0.00 in0.0 mm
08:00 PM 28.8°F-1.8°C 23.2°F-4.9°C 79% 0.9 mph NNE1.4 kmh NNE 1.1 mph1.8 kmh 30.16 in1021.3 mb 0.00 in0.0 mm 0.00 in0.0 mm 0.00 in0.0 mm
07:55 PM 28.8°F-1.8°C 23.2°F-4.9°C 79% 1.2 mph NNE1.9 kmh NNE 1.8 mph2.9 kmh 30.15 in1021.0 mb 0.00 in0.0 mm 0.00 in0.0 mm 0.00 in0.0 mm
07:50 PM 28.8°F-1.8°C 23.2°F-4.9°C 79% 1.1 mph NE1.8 kmh NE 2.0 mph3.2 kmh 30.16 in1021.3 mb 0.00 in0.0 mm 0.00 in0.0 mm 0.00 in0.0 mm
07:45 PM 28.6°F-1.9°C 22.6°F-5.2°C 78% 0.6 mph NE1.0 kmh NE 2.0 mph3.2 kmh 30.15 in1021.0 mb 0.00 in0.0 mm 0.00 in0.0 mm 0.00 in0.0 mm
07:40 PM 28.8°F-1.8°C 22.8°F-5.1°C 78% 0.7 mph ENE1.1 kmh ENE 1.6 mph2.6 kmh 30.14 in1020.7 mb 0.00 in0.0 mm 0.00 in0.0 mm 0.00 in0.0 mm
07:35 PM 28.8°F-1.8°C 22.8°F-5.1°C 78% 1.0 mph NE1.6 kmh NE 2.7 mph4.3 kmh 30.14 in1020.7 mb 0.00 in0.0 mm 0.00 in0.0 mm 0.00 in0.0 mm
07:30 PM 28.8°F-1.8°C 22.8°F-5.1°C 78% 1.2 mph NE1.9 kmh NE 2.7 mph4.3 kmh 30.14 in1020.7 mb 0.00 in0.0 mm 0.00 in0.0 mm 0.00 in0.0 mm
07:25 PM 28.8°F-1.8°C 22.8°F-5.1°C 78% 1.3 mph NE2.1 kmh NE 1.8 mph2.9 kmh 30.14 in1020.7 mb 0.00 in0.0 mm 0.00 in0.0 mm 0.00 in0.0 mm
07:20 PM 28.8°F-1.8°C 22.8°F-5.1°C 78% 1.3 mph NE2.1 kmh NE 2.5 mph4.0 kmh 30.14 in1020.7 mb 0.00 in0.0 mm 0.00 in0.0 mm 0.00 in0.0 mm
07:15 PM 28.6°F-1.9°C 22.3°F-5.4°C 77% 1.2 mph NE1.9 kmh NE 2.5 mph4.0 kmh 30.13 in1020.3 mb 0.00 in0.0 mm 0.00 in0.0 mm 0.00 in0.0 mm
07:10 PM 28.8°F-1.8°C 22.5°F-5.3°C 77% 0.5 mph NE0.8 kmh NE 1.3 mph2.1 kmh 30.13 in1020.3 mb 0.00 in0.0 mm 0.00 in0.0 mm 0.00 in0.0 mm
07:05 PM 28.9°F-1.7°C 22.6°F-5.2°C 77% 0.4 mph NE0.6 kmh NE 1.1 mph1.8 kmh 30.13 in1020.3 mb 0.00 in0.0 mm 0.00 in0.0 mm 0.00 in0.0 mm
07:00 PM 28.9°F-1.7°C 22.6°F-5.2°C 77% 1.1 mph NNE1.8 kmh NNE 2.2 mph3.5 kmh 30.13 in1020.3 mb 0.00 in0.0 mm 0.00 in0.0 mm 0.00 in0.0 mm
06:55 PM 29.1°F-1.6°C 22.8°F-5.1°C 77% 0.7 mph NNE1.1 kmh NNE 2.2 mph3.5 kmh 30.13 in1020.3 mb 0.00 in0.0 mm 0.00 in0.0 mm 0.00 in0.0 mm
06:50 PM 29.1°F-1.6°C 22.5°F-5.3°C 76% 0.3 mph NNE0.5 kmh NNE 0.9 mph1.4 kmh 30.12 in1020.0 mb 0.00 in0.0 mm 0.00 in0.0 mm 0.00 in0.0 mm
06:45 PM 29.3°F-1.5°C 22.6°F-5.2°C 76% 0.2 mph NNE0.3 kmh NNE 0.9 mph1.4 kmh 30.12 in1020.0 mb 0.00 in0.0 mm 0.00 in0.0 mm 0.00 in0.0 mm
06:40 PM 29.5°F-1.4°C 22.5°F-5.3°C 75% 0.6 mph NNE1.0 kmh NNE 1.3 mph2.1 kmh 30.12 in1020.0 mb 0.00 in0.0 mm 0.00 in0.0 mm 0.00 in0.0 mm
06:35 PM 29.8°F-1.2°C 22.8°F-5.1°C 75% 0.9 mph NNE1.4 kmh NNE 1.3 mph2.1 kmh 30.12 in1020.0 mb 0.00 in0.0 mm 0.00 in0.0 mm 0.00 in0.0 mm
06:30 PM 30.0°F-1.1°C 23.4°F-4.8°C 76% 1.1 mph NNE1.8 kmh NNE 2.2 mph3.5 kmh 30.11 in1019.6 mb 0.00 in0.0 mm 0.00 in0.0 mm 0.00 in0.0 mm
06:25 PM 30.2°F-1.0°C 23.2°F-4.9°C 75% 1.2 mph NNE1.9 kmh NNE 2.2 mph3.5 kmh 30.11 in1019.6 mb 0.00 in0.0 mm 0.00 in0.0 mm 0.00 in0.0 mm
06:20 PM 30.4°F-0.9°C 23.4°F-4.8°C 75% 0.9 mph S1.4 kmh S 1.8 mph2.9 kmh 30.11 in1019.6 mb 0.00 in0.0 mm 0.00 in0.0 mm 0.00 in0.0 mm
06:15 PM 30.6°F-0.8°C 23.5°F-4.7°C 75% 0.7 mph SSW1.1 kmh SSW 1.8 mph2.9 kmh 30.10 in1019.3 mb 0.00 in0.0 mm 0.00 in0.0 mm 0.00 in0.0 mm
06:10 PM 30.7°F-0.7°C 23.4°F-4.8°C 74% 0.9 mph NE1.4 kmh NE 1.6 mph2.6 kmh 30.11 in1019.6 mb 0.00 in0.0 mm 0.00 in0.0 mm 0.00 in0.0 mm
06:05 PM 30.9°F-0.6°C 23.5°F-4.7°C 74% 1.4 mph NE2.3 kmh NE 1.8 mph2.9 kmh 30.11 in1019.6 mb 0.00 in0.0 mm 0.00 in0.0 mm 0.00 in0.0 mm
06:00 PM 31.3°F-0.4°C 23.7°F-4.6°C 73% 1.1 mph NE1.8 kmh NE 1.8 mph2.9 kmh 30.11 in1019.6 mb 0.00 in0.0 mm 0.00 in0.0 mm 0.00 in0.0 mm
05:55 PM 31.5°F-0.3°C 23.9°F-4.5°C 73% 0.5 mph E0.8 kmh E 0.9 mph1.4 kmh 30.11 in1019.6 mb 0.00 in0.0 mm 0.00 in0.0 mm 0.00 in0.0 mm
05:50 PM 31.6°F-0.2°C 24.1°F-4.4°C 73% 0.5 mph E0.8 kmh E 1.1 mph1.8 kmh 30.11 in1019.6 mb 0.00 in0.0 mm 0.00 in0.0 mm 0.00 in0.0 mm
05:45 PM 32.0°F0.0°C 24.1°F-4.4°C 72% 0.8 mph NE1.3 kmh NE 1.6 mph2.6 kmh 30.10 in1019.3 mb 0.00 in0.0 mm 0.00 in0.0 mm 0.00 in0.0 mm
05:40 PM 32.4°F0.2°C 24.4°F-4.2°C 72% 0.8 mph NE1.3 kmh NE 1.6 mph2.6 kmh 30.10 in1019.3 mb 0.00 in0.0 mm 0.00 in0.0 mm 0.00 in0.0 mm
05:35 PM 32.5°F0.3°C 24.3°F-4.3°C 71% 0.8 mph ENE1.3 kmh ENE 1.1 mph1.8 kmh 30.10 in1019.3 mb 0.00 in0.0 mm 0.00 in0.0 mm 0.00 in0.0 mm
05:30 PM 32.7°F0.4°C 24.4°F-4.2°C 71% 1.2 mph NE1.9 kmh NE 1.8 mph2.9 kmh 30.10 in1019.3 mb 0.00 in0.0 mm 0.00 in0.0 mm 0.00 in0.0 mm
05:25 PM 33.1°F0.6°C 24.6°F-4.1°C 71% 1.6 mph NE2.6 kmh NE 2.5 mph4.0 kmh 30.10 in1019.3 mb 0.00 in0.0 mm 0.00 in0.0 mm 0.00 in0.0 mm
05:20 PM 33.4°F0.8°C 24.6°F-4.1°C 70% 1.9 mph NE3.1 kmh NE 2.5 mph4.0 kmh 30.10 in1019.3 mb 0.00 in0.0 mm 0.00 in0.0 mm 0.00 in0.0 mm
05:15 PM 33.6°F0.9°C 24.8°F-4.0°C 70% 2.9 mph NNE4.7 kmh NNE 4.3 mph6.9 kmh 30.10 in1019.3 mb 0.00 in0.0 mm 0.00 in0.0 mm 0.00 in0.0 mm
05:10 PM 33.8°F1.0°C 25.0°F-3.9°C 70% 3.4 mph NNE5.5 kmh NNE 4.7 mph7.6 kmh 30.10 in1019.3 mb 0.00 in0.0 mm 0.00 in0.0 mm 0.00 in0.0 mm
05:05 PM 34.2°F1.2°C 25.0°F-3.9°C 69% 3.4 mph NNE5.5 kmh NNE 4.7 mph7.6 kmh 30.09 in1019.0 mb 0.00 in0.0 mm 0.00 in0.0 mm 0.00 in0.0 mm
05:00 PM 34.5°F1.4°C 25.7°F-3.5°C 70% 3.6 mph NNE5.8 kmh NNE 4.3 mph6.9 kmh 30.09 in1019.0 mb 0.00 in0.0 mm 0.00 in0.0 mm 0.00 in0.0 mm
04:55 PM 34.7°F1.5°C 25.5°F-3.6°C 69% 3.6 mph NNE5.8 kmh NNE 4.5 mph7.2 kmh 30.09 in1019.0 mb 0.00 in0.0 mm 0.00 in0.0 mm 0.00 in0.0 mm
04:50 PM 34.9°F1.6°C 25.7°F-3.5°C 69% 3.4 mph NE5.5 kmh NE 4.5 mph7.2 kmh 30.09 in1019.0 mb 0.00 in0.0 mm 0.00 in0.0 mm 0.00 in0.0 mm
04:45 PM 35.2°F1.8°C 25.7°F-3.5°C 68% 3.5 mph NE5.6 kmh NE 5.1 mph8.2 kmh 30.09 in1019.0 mb 0.00 in0.0 mm 0.00 in0.0 mm 0.00 in0.0 mm
04:40 PM 35.6°F2.0°C 25.7°F-3.5°C 67% 3.1 mph NNE5.0 kmh NNE 5.1 mph8.2 kmh 30.08 in1018.6 mb 0.00 in0.0 mm 0.00 in0.0 mm 0.00 in0.0 mm
04:35 PM 35.8°F2.1°C 25.9°F-3.4°C 67% 1.9 mph NE3.1 kmh NE 3.1 mph5.0 kmh 30.08 in1018.6 mb 0.00 in0.0 mm 0.00 in0.0 mm 0.00 in0.0 mm
04:30 PM 36.0°F2.2°C 25.9°F-3.4°C 66% 0.9 mph NE1.4 kmh NE 1.8 mph2.9 kmh 30.08 in1018.6 mb 0.00 in0.0 mm 0.00 in0.0 mm 0.00 in0.0 mm
04:25 PM 36.3°F2.4°C 26.1°F-3.3°C 66% 1.1 mph NE1.8 kmh NE 2.9 mph4.7 kmh 30.08 in1018.6 mb 0.00 in0.0 mm 0.00 in0.0 mm 0.00 in0.0 mm
04:20 PM 36.5°F2.5°C 26.2°F-3.2°C 66% 2.2 mph NE3.5 kmh NE 5.1 mph8.2 kmh 30.08 in1018.6 mb 0.00 in0.0 mm 0.00 in0.0 mm 0.00 in0.0 mm
04:15 PM 36.7°F2.6°C 26.1°F-3.3°C 65% 2.0 mph NNE3.2 kmh NNE 5.1 mph8.2 kmh 30.08 in1018.6 mb 0.00 in0.0 mm 0.00 in0.0 mm 0.00 in0.0 mm
04:10 PM 36.9°F2.7°C 26.2°F-3.2°C 65% 1.7 mph NE2.7 kmh NE 3.4 mph5.5 kmh 30.08 in1018.6 mb 0.00 in0.0 mm 0.00 in0.0 mm 0.00 in0.0 mm
04:05 PM 37.0°F2.8°C 26.4°F-3.1°C 65% 1.9 mph NNE3.1 kmh NNE 2.9 mph4.7 kmh 30.07 in1018.3 mb 0.00 in0.0 mm 0.00 in0.0 mm 0.00 in0.0 mm
04:00 PM 37.2°F2.9°C 26.6°F-3.0°C 65% 1.5 mph NE2.4 kmh NE 3.4 mph5.5 kmh 30.07 in1018.3 mb 0.00 in0.0 mm 0.00 in0.0 mm 0.00 in0.0 mm
03:55 PM 37.4°F3.0°C 26.8°F-2.9°C 65% 1.5 mph ENE2.4 kmh ENE 3.4 mph5.5 kmh 30.07 in1018.3 mb 0.00 in0.0 mm 0.00 in0.0 mm 0.00 in0.0 mm
03:50 PM 37.4°F3.0°C 26.8°F-2.9°C 65% 2.6 mph NE4.2 kmh NE 4.7 mph7.6 kmh 30.07 in1018.3 mb 0.00 in0.0 mm 0.00 in0.0 mm 0.00 in0.0 mm
03:45 PM 37.6°F3.1°C 27.0°F-2.8°C 65% 2.6 mph NE4.2 kmh NE 4.7 mph7.6 kmh 30.07 in1018.3 mb 0.00 in0.0 mm 0.00 in0.0 mm 0.00 in0.0 mm
03:40 PM 37.6°F3.1°C 27.0°F-2.8°C 65% 2.2 mph NE3.5 kmh NE 3.6 mph5.8 kmh 30.07 in1018.3 mb 0.00 in0.0 mm 0.00 in0.0 mm 0.00 in0.0 mm
03:35 PM 37.6°F3.1°C 27.0°F-2.8°C 65% 3.0 mph NE4.8 kmh NE 4.7 mph7.6 kmh 30.07 in1018.3 mb 0.00 in0.0 mm 0.00 in0.0 mm 0.00 in0.0 mm
03:30 PM 37.8°F3.2°C 27.1°F-2.7°C 65% 2.8 mph NE4.5 kmh NE 4.7 mph7.6 kmh 30.07 in1018.3 mb 0.00 in0.0 mm 0.00 in0.0 mm 0.00 in0.0 mm
03:25 PM 37.8°F3.2°C 27.1°F-2.7°C 65% 2.2 mph NE3.5 kmh NE 3.6 mph5.8 kmh 30.07 in1018.3 mb 0.00 in0.0 mm 0.00 in0.0 mm 0.00 in0.0 mm
03:20 PM 37.9°F3.3°C 27.7°F-2.4°C 66% 1.9 mph NE3.1 kmh NE 4.0 mph6.4 kmh 30.06 in1017.9 mb 0.00 in0.0 mm 0.00 in0.0 mm 0.00 in0.0 mm
03:15 PM 37.9°F3.3°C 27.7°F-2.4°C 66% 1.8 mph E2.9 kmh E 4.0 mph6.4 kmh 30.06 in1017.9 mb 0.00 in0.0 mm 0.00 in0.0 mm 0.00 in0.0 mm
03:10 PM 37.9°F3.3°C 27.7°F-2.4°C 66% 1.9 mph ENE3.1 kmh ENE 3.4 mph5.5 kmh 30.06 in1017.9 mb 0.00 in0.0 mm 0.00 in0.0 mm 0.00 in0.0 mm
03:05 PM 37.9°F3.3°C 28.0°F-2.2°C 67% 1.9 mph NE3.1 kmh NE 3.4 mph5.5 kmh 30.06 in1017.9 mb 0.00 in0.0 mm 0.00 in0.0 mm 0.00 in0.0 mm
03:00 PM 37.9°F3.3°C 28.0°F-2.2°C 67% 2.3 mph NE3.7 kmh NE 4.3 mph6.9 kmh 30.06 in1017.9 mb 0.00 in0.0 mm 0.00 in0.0 mm 0.00 in0.0 mm
02:55 PM 37.8°F3.2°C 27.9°F-2.3°C 67% 2.1 mph NNE3.4 kmh NNE 4.3 mph6.9 kmh 30.06 in1017.9 mb 0.00 in0.0 mm 0.00 in0.0 mm 0.00 in0.0 mm
02:50 PM 37.8°F3.2°C 27.9°F-2.3°C 67% 1.1 mph NNE1.8 kmh NNE 2.7 mph4.3 kmh 30.06 in1017.9 mb 0.00 in0.0 mm 0.00 in0.0 mm 0.00 in0.0 mm
02:45 PM 37.8°F3.2°C 27.9°F-2.3°C 67% 1.2 mph ENE1.9 kmh ENE 3.1 mph5.0 kmh 30.06 in1017.9 mb 0.00 in0.0 mm 0.00 in0.0 mm 0.00 in0.0 mm
02:40 PM 37.4°F3.0°C 27.5°F-2.5°C 67% 2.4 mph NE3.9 kmh NE 4.7 mph7.6 kmh 30.06 in1017.9 mb 0.00 in0.0 mm 0.00 in0.0 mm 0.00 in0.0 mm
02:35 PM 37.4°F3.0°C 27.5°F-2.5°C 67% 2.6 mph NE4.2 kmh NE 4.7 mph7.6 kmh 30.06 in1017.9 mb 0.00 in0.0 mm 0.00 in0.0 mm 0.00 in0.0 mm
02:30 PM 37.2°F2.9°C 27.3°F-2.6°C 67% 2.6 mph NE4.2 kmh NE 4.3 mph6.9 kmh 30.06 in1017.9 mb 0.00 in0.0 mm 0.00 in0.0 mm 0.00 in0.0 mm
02:25 PM 37.0°F2.8°C 27.7°F-2.4°C 68% 2.8 mph NE4.5 kmh NE 6.9 mph11.1 kmh 30.06 in1017.9 mb 0.00 in0.0 mm 0.00 in0.0 mm 0.00 in0.0 mm
02:20 PM 37.0°F2.8°C 27.7°F-2.4°C 68% 2.3 mph NE3.7 kmh NE 6.9 mph11.1 kmh 30.06 in1017.9 mb 0.00 in0.0 mm 0.00 in0.0 mm 0.00 in0.0 mm
02:15 PM 37.0°F2.8°C 27.9°F-2.3°C 69% 1.9 mph NE3.1 kmh NE 3.6 mph5.8 kmh 30.06 in1017.9 mb 0.00 in0.0 mm 0.00 in0.0 mm 0.00 in0.0 mm
02:10 PM 36.9°F2.7°C 28.0°F-2.2°C 70% 2.2 mph NE3.5 kmh NE 4.0 mph6.4 kmh 30.06 in1017.9 mb 0.00 in0.0 mm 0.00 in0.0 mm 0.00 in0.0 mm
02:05 PM 36.7°F2.6°C 27.9°F-2.3°C 70% 3.1 mph NE5.0 kmh NE 5.4 mph8.7 kmh 30.06 in1017.9 mb 0.00 in0.0 mm 0.00 in0.0 mm 0.00 in0.0 mm
02:00 PM 36.5°F2.5°C 27.7°F-2.4°C 70% 3.3 mph NE5.3 kmh NE 5.4 mph8.7 kmh 30.06 in1017.9 mb 0.00 in0.0 mm 0.00 in0.0 mm 0.00 in0.0 mm
01:55 PM 36.3°F2.4°C 27.9°F-2.3°C 71% 2.7 mph ENE4.3 kmh ENE 4.7 mph7.6 kmh 30.06 in1017.9 mb 0.00 in0.0 mm 0.00 in0.0 mm 0.00 in0.0 mm
01:50 PM 36.1°F2.3°C 27.7°F-2.4°C 71% 2.5 mph NE4.0 kmh NE 5.4 mph8.7 kmh 30.06 in1017.9 mb 0.00 in0.0 mm 0.00 in0.0 mm 0.00 in0.0 mm
01:45 PM 36.0°F2.2°C 27.7°F-2.4°C 71% 2.9 mph NE4.7 kmh NE 5.4 mph8.7 kmh 30.06 in1017.9 mb 0.00 in0.0 mm 0.00 in0.0 mm 0.00 in0.0 mm
01:40 PM 36.0°F2.2°C 27.9°F-2.3°C 72% 3.2 mph NE5.1 kmh NE 4.7 mph7.6 kmh 30.05 in1017.6 mb 0.00 in0.0 mm 0.00 in0.0 mm 0.00 in0.0 mm
01:35 PM 35.8°F2.1°C 28.0°F-2.2°C 73% 3.2 mph NE5.1 kmh NE 4.7 mph7.6 kmh 30.06 in1017.9 mb 0.00 in0.0 mm 0.00 in0.0 mm 0.00 in0.0 mm
01:30 PM 35.6°F2.0°C 27.9°F-2.3°C 73% 2.5 mph NE4.0 kmh NE 4.9 mph7.9 kmh 30.06 in1017.9 mb 0.00 in0.0 mm 0.00 in0.0 mm 0.00 in0.0 mm
01:25 PM 35.6°F2.0°C 27.9°F-2.3°C 73% 2.0 mph NE3.2 kmh NE 4.9 mph7.9 kmh 30.06 in1017.9 mb 0.00 in0.0 mm 0.00 in0.0 mm 0.00 in0.0 mm
01:20 PM 35.2°F1.8°C 27.5°F-2.5°C 73% 2.2 mph NE3.5 kmh NE 3.6 mph5.8 kmh 30.06 in1017.9 mb 0.00 in0.0 mm 0.00 in0.0 mm 0.00 in0.0 mm
01:15 PM 35.1°F1.7°C 27.5°F-2.5°C 74% 2.4 mph NE3.9 kmh NE 4.0 mph6.4 kmh 30.06 in1017.9 mb 0.00 in0.0 mm 0.00 in0.0 mm 0.00 in0.0 mm
01:10 PM 34.9°F1.6°C 27.3°F-2.6°C 74% 2.8 mph NE4.5 kmh NE 4.3 mph6.9 kmh 30.06 in1017.9 mb 0.00 in0.0 mm 0.00 in0.0 mm 0.00 in0.0 mm
01:05 PM 34.7°F1.5°C 27.5°F-2.5°C 75% 3.3 mph NNE5.3 kmh NNE 4.3 mph6.9 kmh 30.05 in1017.6 mb 0.00 in0.0 mm 0.00 in0.0 mm 0.00 in0.0 mm
01:00 PM 34.3°F1.3°C 27.1°F-2.7°C 75% 3.2 mph NE5.1 kmh NE 4.0 mph6.4 kmh 30.05 in1017.6 mb 0.00 in0.0 mm 0.00 in0.0 mm 0.00 in0.0 mm
12:55 PM 34.2°F1.2°C 27.3°F-2.6°C 76% 2.6 mph NE4.2 kmh NE 4.0 mph6.4 kmh 30.05 in1017.6 mb 0.00 in0.0 mm 0.00 in0.0 mm 0.00 in0.0 mm
12:50 PM 34.0°F1.1°C 27.5°F-2.5°C 77% 1.5 mph NE2.4 kmh NE 2.9 mph4.7 kmh 30.05 in1017.6 mb 0.00 in0.0 mm 0.00 in0.0 mm 0.00 in0.0 mm
12:45 PM 33.6°F0.9°C 27.1°F-2.7°C 77% 1.3 mph ENE2.1 kmh ENE 2.9 mph4.7 kmh 30.05 in1017.6 mb 0.00 in0.0 mm 0.00 in0.0 mm 0.00 in0.0 mm
12:40 PM 33.3°F0.7°C 27.1°F-2.7°C 78% 1.1 mph E1.8 kmh E 2.7 mph4.3 kmh 30.05 in1017.6 mb 0.00 in0.0 mm 0.00 in0.0 mm 0.00 in0.0 mm
12:35 PM 32.9°F0.5°C 26.8°F-2.9°C 78% 1.3 mph E2.1 kmh E 2.9 mph4.7 kmh 30.05 in1017.6 mb 0.00 in0.0 mm 0.00 in0.0 mm 0.00 in0.0 mm
12:30 PM 32.4°F0.2°C 26.6°F-3.0°C 79% 1.5 mph E2.4 kmh E 2.9 mph4.7 kmh 30.05 in1017.6 mb 0.00 in0.0 mm 0.00 in0.0 mm 0.00 in0.0 mm
12:25 PM 32.0°F0.0°C 26.6°F-3.0°C 80% 0.9 mph SE1.4 kmh SE 2.5 mph4.0 kmh 30.05 in1017.6 mb 0.00 in0.0 mm 0.00 in0.0 mm 0.00 in0.0 mm
12:20 PM 31.6°F-0.2°C 25.9°F-3.4°C 79% 0.7 mph E1.1 kmh E 1.3 mph2.1 kmh 30.05 in1017.6 mb 0.00 in0.0 mm 0.00 in0.0 mm 0.00 in0.0 mm
12:15 PM 31.3°F-0.4°C 25.5°F-3.6°C 79% 0.7 mph SE1.1 kmh SE 1.3 mph2.1 kmh 30.05 in1017.6 mb 0.00 in0.0 mm 0.00 in0.0 mm 0.00 in0.0 mm
12:10 PM 31.3°F-0.4°C 25.5°F-3.6°C 79% 0.7 mph SE1.1 kmh SE 1.1 mph1.8 kmh 30.05 in1017.6 mb 0.00 in0.0 mm 0.00 in0.0 mm 0.00 in0.0 mm
12:05 PM 30.9°F-0.6°C 25.2°F-3.8°C 79% 0.8 mph E1.3 kmh E 1.6 mph2.6 kmh 30.05 in1017.6 mb 0.00 in0.0 mm 0.00 in0.0 mm 0.00 in0.0 mm
12:00 PM 30.7°F-0.7°C 25.3°F-3.7°C 80% 0.9 mph SE1.4 kmh SE 1.6 mph2.6 kmh 30.05 in1017.6 mb 0.00 in0.0 mm 0.00 in0.0 mm 0.00 in0.0 mm
11:55 AM 30.6°F-0.8°C 25.2°F-3.8°C 80% 1.1 mph SE1.8 kmh SE 2.5 mph4.0 kmh 30.05 in1017.6 mb 0.00 in0.0 mm 0.00 in0.0 mm 0.00 in0.0 mm
11:50 AM 30.2°F-1.0°C 24.8°F-4.0°C 80% 1.0 mph E1.6 kmh E 2.5 mph4.0 kmh 30.05 in1017.6 mb 0.00 in0.0 mm 0.00 in0.0 mm 0.00 in0.0 mm
11:45 AM 29.8°F-1.2°C 24.4°F-4.2°C 80% 0.6 mph ENE1.0 kmh ENE 2.2 mph3.5 kmh 30.05 in1017.6 mb 0.00 in0.0 mm 0.00 in0.0 mm 0.00 in0.0 mm
11:40 AM 29.8°F-1.2°C 24.8°F-4.0°C 81% 1.0 mph SE1.6 kmh SE 2.0 mph3.2 kmh 30.05 in1017.6 mb 0.00 in0.0 mm 0.00 in0.0 mm 0.00 in0.0 mm
11:35 AM 29.7°F-1.3°C 24.6°F-4.1°C 81% 1.1 mph E1.8 kmh E 2.0 mph3.2 kmh 30.05 in1017.6 mb 0.00 in0.0 mm 0.00 in0.0 mm 0.00 in0.0 mm
11:30 AM 29.3°F-1.5°C 24.3°F-4.3°C 81% 1.1 mph E1.8 kmh E 1.8 mph2.9 kmh 30.05 in1017.6 mb 0.00 in0.0 mm 0.00 in0.0 mm 0.00 in0.0 mm
11:25 AM 29.1°F-1.6°C 24.1°F-4.4°C 81% 1.1 mph ESE1.8 kmh ESE 2.5 mph4.0 kmh 30.05 in1017.6 mb 0.00 in0.0 mm 0.00 in0.0 mm 0.00 in0.0 mm
11:20 AM 29.1°F-1.6°C 24.1°F-4.4°C 81% 1.3 mph SE2.1 kmh SE 3.6 mph5.8 kmh 30.05 in1017.6 mb 0.00 in0.0 mm 0.00 in0.0 mm 0.00 in0.0 mm
11:15 AM 28.8°F-1.8°C 23.9°F-4.5°C 82% 1.7 mph SE2.7 kmh SE 3.6 mph5.8 kmh 30.05 in1017.6 mb 0.00 in0.0 mm 0.00 in0.0 mm 0.00 in0.0 mm
11:10 AM 28.8°F-1.8°C 23.9°F-4.5°C 82% 1.3 mph ESE2.1 kmh ESE 3.4 mph5.5 kmh 30.05 in1017.6 mb 0.00 in0.0 mm 0.00 in0.0 mm 0.00 in0.0 mm
11:05 AM 28.4°F-2.0°C 24.1°F-4.4°C 83% 1.0 mph E1.6 kmh E 1.8 mph2.9 kmh 30.05 in1017.6 mb 0.00 in0.0 mm 0.00 in0.0 mm 0.00 in0.0 mm
11:00 AM 28.2°F-2.1°C 23.7°F-4.6°C 83% 1.1 mph E1.8 kmh E 1.8 mph2.9 kmh 30.05 in1017.6 mb 0.00 in0.0 mm 0.00 in0.0 mm 0.00 in0.0 mm
10:55 AM 28.0°F-2.2°C 23.5°F-4.7°C 83% 1.3 mph ENE2.1 kmh ENE 3.1 mph5.0 kmh 30.04 in1017.3 mb 0.00 in0.0 mm 0.00 in0.0 mm 0.00 in0.0 mm
10:50 AM 27.9°F-2.3°C 23.4°F-4.8°C 83% 1.2 mph ENE1.9 kmh ENE 3.1 mph5.0 kmh 30.04 in1017.3 mb 0.00 in0.0 mm 0.00 in0.0 mm 0.00 in0.0 mm
10:45 AM 27.7°F-2.4°C 23.2°F-4.9°C 83% 1.0 mph E1.6 kmh E 2.2 mph3.5 kmh 30.04 in1017.3 mb 0.00 in0.0 mm 0.00 in0.0 mm 0.00 in0.0 mm
10:40 AM 27.5°F-2.5°C 23.2°F-4.9°C 83% 1.0 mph E1.6 kmh E 2.2 mph3.5 kmh 30.04 in1017.3 mb 0.00 in0.0 mm 0.00 in0.0 mm 0.00 in0.0 mm
10:35 AM 27.3°F-2.6°C 23.2°F-4.9°C 84% 1.0 mph E1.6 kmh E 1.6 mph2.6 kmh 30.04 in1017.3 mb 0.00 in0.0 mm 0.00 in0.0 mm 0.00 in0.0 mm
10:30 AM 27.1°F-2.7°C 22.6°F-5.2°C 83% 1.0 mph SE1.6 kmh SE 1.6 mph2.6 kmh 30.04 in1017.3 mb 0.00 in0.0 mm 0.00 in0.0 mm 0.00 in0.0 mm
10:25 AM 27.0°F-2.8°C 22.5°F-5.3°C 83% 1.2 mph NE1.9 kmh NE 2.5 mph4.0 kmh 30.03 in1016.9 mb 0.00 in0.0 mm 0.00 in0.0 mm 0.00 in0.0 mm
10:20 AM 27.0°F-2.8°C 22.5°F-5.3°C 83% 1.3 mph NE2.1 kmh NE 2.5 mph4.0 kmh 30.03 in1016.9 mb 0.00 in0.0 mm 0.00 in0.0 mm 0.00 in0.0 mm
10:15 AM 26.8°F-2.9°C 22.6°F-5.2°C 84% 1.4 mph E2.3 kmh E 2.0 mph3.2 kmh 30.03 in1016.9 mb 0.00 in0.0 mm 0.00 in0.0 mm 0.00 in0.0 mm
10:10 AM 26.6°F-3.0°C 22.5°F-5.3°C 84% 1.5 mph ENE2.4 kmh ENE 2.9 mph4.7 kmh 30.03 in1016.9 mb 0.00 in0.0 mm 0.00 in0.0 mm 0.00 in0.0 mm
10:05 AM 26.2°F-3.2°C 22.1°F-5.5°C 84% 1.1 mph ENE1.8 kmh ENE 2.9 mph4.7 kmh 30.03 in1016.9 mb 0.00 in0.0 mm 0.00 in0.0 mm 0.00 in0.0 mm
10:00 AM 26.2°F-3.2°C 22.1°F-5.5°C 84% 0.8 mph E1.3 kmh E 1.6 mph2.6 kmh 30.02 in1016.6 mb 0.00 in0.0 mm 0.00 in0.0 mm 0.00 in0.0 mm
09:55 AM 26.1°F-3.3°C 22.1°F-5.5°C 85% 1.3 mph ESE2.1 kmh ESE 2.5 mph4.0 kmh 30.02 in1016.6 mb 0.00 in0.0 mm 0.00 in0.0 mm 0.00 in0.0 mm
09:50 AM 25.9°F-3.4°C 21.9°F-5.6°C 85% 1.5 mph ESE2.4 kmh ESE 2.7 mph4.3 kmh 30.02 in1016.6 mb 0.00 in0.0 mm 0.00 in0.0 mm 0.00 in0.0 mm
09:45 AM 25.7°F-3.5°C 21.9°F-5.6°C 85% 1.3 mph NE2.1 kmh NE 2.7 mph4.3 kmh 30.02 in1016.6 mb 0.00 in0.0 mm 0.00 in0.0 mm 0.00 in0.0 mm
09:40 AM 25.7°F-3.5°C 21.9°F-5.6°C 85% 1.2 mph ENE1.9 kmh ENE 3.4 mph5.5 kmh 30.02 in1016.6 mb 0.00 in0.0 mm 0.00 in0.0 mm 0.00 in0.0 mm
09:35 AM 25.5°F-3.6°C 21.7°F-5.7°C 85% 1.1 mph E1.8 kmh E 3.4 mph5.5 kmh 30.02 in1016.6 mb 0.00 in0.0 mm 0.00 in0.0 mm 0.00 in0.0 mm
09:30 AM 25.3°F-3.7°C 21.6°F-5.8°C 85% 1.2 mph NE1.9 kmh NE 2.2 mph3.5 kmh 30.01 in1016.3 mb 0.00 in0.0 mm 0.00 in0.0 mm 0.00 in0.0 mm
09:25 AM 25.2°F-3.8°C 21.4°F-5.9°C 85% 1.1 mph NE1.8 kmh NE 2.7 mph4.3 kmh 30.01 in1016.3 mb 0.00 in0.0 mm 0.00 in0.0 mm 0.00 in0.0 mm
09:20 AM 25.0°F-3.9°C 21.2°F-6.0°C 85% 1.1 mph ENE1.8 kmh ENE 2.7 mph4.3 kmh 30.01 in1016.3 mb 0.00 in0.0 mm 0.00 in0.0 mm 0.00 in0.0 mm
09:15 AM 24.8°F-4.0°C 21.0°F-6.1°C 85% 1.3 mph NE2.1 kmh NE 2.9 mph4.7 kmh 30.01 in1016.3 mb 0.00 in0.0 mm 0.00 in0.0 mm 0.00 in0.0 mm
09:10 AM 24.8°F-4.0°C 21.0°F-6.1°C 85% 1.2 mph NE1.9 kmh NE 2.9 mph4.7 kmh 30.00 in1015.9 mb 0.00 in0.0 mm 0.00 in0.0 mm 0.00 in0.0 mm
09:05 AM 24.6°F-4.1°C 20.8°F-6.2°C 85% 0.9 mph ENE1.4 kmh ENE 1.6 mph2.6 kmh 30.00 in1015.9 mb 0.00 in0.0 mm 0.00 in0.0 mm 0.00 in0.0 mm
09:00 AM 24.4°F-4.2°C 20.7°F-6.3°C 85% 0.7 mph SE1.1 kmh SE 1.6 mph2.6 kmh 30.00 in1015.9 mb 0.00 in0.0 mm 0.00 in0.0 mm 0.00 in0.0 mm
08:55 AM 24.4°F-4.2°C 20.7°F-6.3°C 85% 0.4 mph SE0.6 kmh SE 1.1 mph1.8 kmh 30.00 in1015.9 mb 0.00 in0.0 mm 0.00 in0.0 mm 0.00 in0.0 mm
08:50 AM 24.4°F-4.2°C 20.7°F-6.3°C 85% 0.2 mph SE0.3 kmh SE 0.4 mph0.6 kmh 30.00 in1015.9 mb 0.00 in0.0 mm 0.00 in0.0 mm 0.00 in0.0 mm
08:45 AM 24.6°F-4.1°C 20.8°F-6.2°C 85% 0.4 mph E0.6 kmh E 0.7 mph1.1 kmh 30.00 in1015.9 mb 0.00 in0.0 mm 0.00 in0.0 mm 0.00 in0.0 mm
08:40 AM 24.8°F-4.0°C 21.0°F-6.1°C 85% 1.1 mph E1.8 kmh E 2.5 mph4.0 kmh 29.99 in1015.6 mb 0.00 in0.0 mm 0.00 in0.0 mm 0.00 in0.0 mm
08:35 AM 24.8°F-4.0°C 21.0°F-6.1°C 85% 1.2 mph E1.9 kmh E 2.5 mph4.0 kmh 30.00 in1015.9 mb 0.00 in0.0 mm 0.00 in0.0 mm 0.00 in0.0 mm
08:30 AM 24.8°F-4.0°C 21.0°F-6.1°C 85% 1.3 mph NE2.1 kmh NE 2.5 mph4.0 kmh 29.99 in1015.6 mb 0.00 in0.0 mm 0.00 in0.0 mm 0.00 in0.0 mm
08:25 AM 24.8°F-4.0°C 21.0°F-6.1°C 85% 1.4 mph NE2.3 kmh NE 2.5 mph4.0 kmh 29.99 in1015.6 mb 0.00 in0.0 mm 0.00 in0.0 mm 0.00 in0.0 mm
08:20 AM 24.8°F-4.0°C 21.0°F-6.1°C 85% 0.9 mph ENE1.4 kmh ENE 2.2 mph3.5 kmh 29.99 in1015.6 mb 0.00 in0.0 mm 0.00 in0.0 mm 0.00 in0.0 mm
08:15 AM 24.8°F-4.0°C 21.0°F-6.1°C 85% 0.7 mph E1.1 kmh E 1.1 mph1.8 kmh 29.98 in1015.2 mb 0.00 in0.0 mm 0.00 in0.0 mm 0.00 in0.0 mm
08:10 AM 24.8°F-4.0°C 21.0°F-6.1°C 85% 0.9 mph ENE1.4 kmh ENE 2.5 mph4.0 kmh 29.97 in1014.9 mb 0.00 in0.0 mm 0.00 in0.0 mm 0.00 in0.0 mm
08:05 AM 24.8°F-4.0°C 21.2°F-6.0°C 86% 0.9 mph NE1.4 kmh NE 2.5 mph4.0 kmh 29.97 in1014.9 mb 0.00 in0.0 mm 0.00 in0.0 mm 0.00 in0.0 mm
08:00 AM 24.8°F-4.0°C 21.2°F-6.0°C 86% 0.9 mph E1.4 kmh E 1.8 mph2.9 kmh 29.97 in1014.9 mb 0.00 in0.0 mm 0.00 in0.0 mm 0.00 in0.0 mm
07:55 AM 24.8°F-4.0°C 21.2°F-6.0°C 86% 1.0 mph ENE1.6 kmh ENE 2.5 mph4.0 kmh 29.97 in1014.9 mb 0.00 in0.0 mm 0.00 in0.0 mm 0.00 in0.0 mm
07:50 AM 25.0°F-3.9°C 21.4°F-5.9°C 86% 0.9 mph NE1.4 kmh NE 2.5 mph4.0 kmh 29.97 in1014.9 mb 0.00 in0.0 mm 0.00 in0.0 mm 0.00 in0.0 mm
07:45 AM 25.0°F-3.9°C 21.4°F-5.9°C 86% 1.4 mph NE2.3 kmh NE 2.7 mph4.3 kmh 29.97 in1014.9 mb 0.00 in0.0 mm 0.00 in0.0 mm 0.00 in0.0 mm
07:40 AM 24.8°F-4.0°C 21.2°F-6.0°C 86% 1.5 mph ENE2.4 kmh ENE 2.7 mph4.3 kmh 29.97 in1014.9 mb 0.00 in0.0 mm 0.00 in0.0 mm 0.00 in0.0 mm
07:35 AM 24.8°F-4.0°C 21.2°F-6.0°C 86% 0.9 mph E1.4 kmh E 2.0 mph3.2 kmh 29.97 in1014.9 mb 0.00 in0.0 mm 0.00 in0.0 mm 0.00 in0.0 mm
07:30 AM 24.8°F-4.0°C 21.2°F-6.0°C 86% 0.8 mph SSW1.3 kmh SSW 1.8 mph2.9 kmh 29.97 in1014.9 mb 0.00 in0.0 mm 0.00 in0.0 mm 0.00 in0.0 mm
07:25 AM 24.8°F-4.0°C 21.2°F-6.0°C 86% 0.9 mph W1.4 kmh W 1.8 mph2.9 kmh 29.97 in1014.9 mb 0.00 in0.0 mm 0.00 in0.0 mm 0.00 in0.0 mm
07:20 AM 24.8°F-4.0°C 21.6°F-5.8°C 87% 0.9 mph NE1.4 kmh NE 1.8 mph2.9 kmh 29.96 in1014.6 mb 0.00 in0.0 mm 0.00 in0.0 mm 0.00 in0.0 mm
07:15 AM 24.8°F-4.0°C 21.6°F-5.8°C 87% 0.9 mph NE1.4 kmh NE 1.1 mph1.8 kmh 29.96 in1014.6 mb 0.00 in0.0 mm 0.00 in0.0 mm 0.00 in0.0 mm
07:10 AM 24.8°F-4.0°C 21.6°F-5.8°C 87% 0.9 mph E1.4 kmh E 1.1 mph1.8 kmh 29.96 in1014.6 mb 0.00 in0.0 mm 0.00 in0.0 mm 0.00 in0.0 mm
07:05 AM 24.8°F-4.0°C 21.6°F-5.8°C 87% 0.9 mph NE1.4 kmh NE 1.6 mph2.6 kmh 29.96 in1014.6 mb 0.00 in0.0 mm 0.00 in0.0 mm 0.00 in0.0 mm
07:00 AM 24.8°F-4.0°C 21.6°F-5.8°C 87% 0.6 mph NE1.0 kmh NE 1.6 mph2.6 kmh 29.96 in1014.6 mb 0.00 in0.0 mm 0.00 in0.0 mm 0.00 in0.0 mm
06:55 AM 24.8°F-4.0°C 21.6°F-5.8°C 87% 0.5 mph E0.8 kmh E 1.6 mph2.6 kmh 29.96 in1014.6 mb 0.00 in0.0 mm 0.00 in0.0 mm 0.00 in0.0 mm
06:50 AM 25.0°F-3.9°C 21.7°F-5.7°C 87% 0.8 mph ENE1.3 kmh ENE 1.6 mph2.6 kmh 29.96 in1014.6 mb 0.00 in0.0 mm 0.00 in0.0 mm 0.00 in0.0 mm
06:45 AM 25.0°F-3.9°C 21.7°F-5.7°C 87% 0.9 mph ENE1.4 kmh ENE 1.3 mph2.1 kmh 29.96 in1014.6 mb 0.00 in0.0 mm 0.00 in0.0 mm 0.00 in0.0 mm
06:40 AM 25.2°F-3.8°C 21.9°F-5.6°C 87% 0.8 mph NE1.3 kmh NE 1.3 mph2.1 kmh 29.96 in1014.6 mb 0.00 in0.0 mm 0.00 in0.0 mm 0.00 in0.0 mm
06:35 AM 25.2°F-3.8°C 21.9°F-5.6°C 87% 1.0 mph NE1.6 kmh NE 1.6 mph2.6 kmh 29.96 in1014.6 mb 0.00 in0.0 mm 0.00 in0.0 mm 0.00 in0.0 mm
06:30 AM 25.2°F-3.8°C 21.9°F-5.6°C 87% 1.3 mph NE2.1 kmh NE 1.6 mph2.6 kmh 29.96 in1014.6 mb 0.00 in0.0 mm 0.00 in0.0 mm 0.00 in0.0 mm
06:25 AM 25.3°F-3.7°C 22.1°F-5.5°C 87% 1.1 mph NE1.8 kmh NE 2.7 mph4.3 kmh 29.95 in1014.2 mb 0.00 in0.0 mm 0.00 in0.0 mm 0.00 in0.0 mm
06:20 AM 25.3°F-3.7°C 22.1°F-5.5°C 87% 1.1 mph NE1.8 kmh NE 2.7 mph4.3 kmh 29.95 in1014.2 mb 0.00 in0.0 mm 0.00 in0.0 mm 0.00 in0.0 mm
06:15 AM 25.3°F-3.7°C 22.1°F-5.5°C 87% 1.0 mph NE1.6 kmh NE 2.2 mph3.5 kmh 29.95 in1014.2 mb 0.00 in0.0 mm 0.00 in0.0 mm 0.00 in0.0 mm
06:10 AM 25.3°F-3.7°C 21.7°F-5.7°C 86% 0.5 mph NE0.8 kmh NE 1.6 mph2.6 kmh 29.95 in1014.2 mb 0.00 in0.0 mm 0.00 in0.0 mm 0.00 in0.0 mm
06:05 AM 25.5°F-3.6°C 21.9°F-5.6°C 86% 0.6 mph E1.0 kmh E 1.6 mph2.6 kmh 29.95 in1014.2 mb 0.00 in0.0 mm 0.00 in0.0 mm 0.00 in0.0 mm
06:00 AM 25.5°F-3.6°C 21.9°F-5.6°C 86% 0.7 mph E1.1 kmh E 1.6 mph2.6 kmh 29.95 in1014.2 mb 0.00 in0.0 mm 0.00 in0.0 mm 0.00 in0.0 mm
05:55 AM 25.5°F-3.6°C 21.9°F-5.6°C 86% 0.5 mph E0.8 kmh E 1.1 mph1.8 kmh 29.95 in1014.2 mb 0.00 in0.0 mm 0.00 in0.0 mm 0.00 in0.0 mm
05:50 AM 25.5°F-3.6°C 21.9°F-5.6°C 86% 0.7 mph E1.1 kmh E 1.1 mph1.8 kmh 29.95 in1014.2 mb 0.00 in0.0 mm 0.00 in0.0 mm 0.00 in0.0 mm
05:45 AM 25.5°F-3.6°C 21.9°F-5.6°C 86% 0.7 mph NE1.1 kmh NE 1.8 mph2.9 kmh 29.95 in1014.2 mb 0.00 in0.0 mm 0.00 in0.0 mm 0.00 in0.0 mm
05:40 AM 25.5°F-3.6°C 21.9°F-5.6°C 86% 0.8 mph ENE1.3 kmh ENE 2.5 mph4.0 kmh 29.95 in1014.2 mb 0.00 in0.0 mm 0.00 in0.0 mm 0.00 in0.0 mm
05:35 AM 25.5°F-3.6°C 21.9°F-5.6°C 86% 0.6 mph E1.0 kmh E 2.5 mph4.0 kmh 29.95 in1014.2 mb 0.00 in0.0 mm 0.00 in0.0 mm 0.00 in0.0 mm
05:30 AM 25.5°F-3.6°C 21.9°F-5.6°C 86% 0.4 mph ESE0.6 kmh ESE 0.7 mph1.1 kmh 29.95 in1014.2 mb 0.00 in0.0 mm 0.00 in0.0 mm 0.00 in0.0 mm
05:25 AM 25.5°F-3.6°C 21.9°F-5.6°C 86% 0.4 mph SE0.6 kmh SE 0.9 mph1.4 kmh 29.95 in1014.2 mb 0.00 in0.0 mm 0.00 in0.0 mm 0.00 in0.0 mm
05:20 AM 25.5°F-3.6°C 21.9°F-5.6°C 86% 0.4 mph E0.6 kmh E 1.3 mph2.1 kmh 29.95 in1014.2 mb 0.00 in0.0 mm 0.00 in0.0 mm 0.00 in0.0 mm
05:15 AM 25.7°F-3.5°C 22.3°F-5.4°C 86% 0.5 mph ENE0.8 kmh ENE 1.3 mph2.1 kmh 29.95 in1014.2 mb 0.00 in0.0 mm 0.00 in0.0 mm 0.00 in0.0 mm
05:10 AM 25.9°F-3.4°C 22.3°F-5.4°C 86% 0.6 mph E1.0 kmh E 1.1 mph1.8 kmh 29.95 in1014.2 mb 0.00 in0.0 mm 0.00 in0.0 mm 0.00 in0.0 mm
05:05 AM 25.9°F-3.4°C 22.3°F-5.4°C 86% 0.6 mph E1.0 kmh E 1.1 mph1.8 kmh 29.95 in1014.2 mb 0.00 in0.0 mm 0.00 in0.0 mm 0.00 in0.0 mm
05:00 AM 26.1°F-3.3°C 22.5°F-5.3°C 86% 0.6 mph ESE1.0 kmh ESE 2.2 mph3.5 kmh 29.94 in1013.9 mb 0.00 in0.0 mm 0.00 in0.0 mm 0.00 in0.0 mm
04:55 AM 26.2°F-3.2°C 22.6°F-5.2°C 86% 0.6 mph ESE1.0 kmh ESE 2.2 mph3.5 kmh 29.94 in1013.9 mb 0.00 in0.0 mm 0.00 in0.0 mm 0.00 in0.0 mm
04:50 AM 26.2°F-3.2°C 22.6°F-5.2°C 86% 0.6 mph ENE1.0 kmh ENE 2.5 mph4.0 kmh 29.95 in1014.2 mb 0.00 in0.0 mm 0.00 in0.0 mm 0.00 in0.0 mm
04:45 AM 26.4°F-3.1°C 22.8°F-5.1°C 86% 0.6 mph NE1.0 kmh NE 2.5 mph4.0 kmh 29.94 in1013.9 mb 0.00 in0.0 mm 0.00 in0.0 mm 0.00 in0.0 mm
04:40 AM 26.4°F-3.1°C 22.8°F-5.1°C 86% 0.9 mph ENE1.4 kmh ENE 2.0 mph3.2 kmh 29.94 in1013.9 mb 0.00 in0.0 mm 0.00 in0.0 mm 0.00 in0.0 mm
04:35 AM 26.4°F-3.1°C 22.8°F-5.1°C 86% 1.2 mph E1.9 kmh E 2.0 mph3.2 kmh 29.95 in1014.2 mb 0.00 in0.0 mm 0.00 in0.0 mm 0.00 in0.0 mm
04:30 AM 26.6°F-3.0°C 23.0°F-5.0°C 86% 1.1 mph SSE1.8 kmh SSE 1.8 mph2.9 kmh 29.95 in1014.2 mb 0.00 in0.0 mm 0.00 in0.0 mm 0.00 in0.0 mm
04:25 AM 26.6°F-3.0°C 23.0°F-5.0°C 86% 0.9 mph SSE1.4 kmh SSE 2.0 mph3.2 kmh 29.94 in1013.9 mb 0.00 in0.0 mm 0.00 in0.0 mm 0.00 in0.0 mm
04:20 AM 26.6°F-3.0°C 23.0°F-5.0°C 86% 0.8 mph SE1.3 kmh SE 2.0 mph3.2 kmh 29.94 in1013.9 mb 0.00 in0.0 mm 0.00 in0.0 mm 0.00 in0.0 mm
04:15 AM 26.6°F-3.0°C 23.0°F-5.0°C 86% 0.6 mph E1.0 kmh E 1.6 mph2.6 kmh 29.94 in1013.9 mb 0.00 in0.0 mm 0.00 in0.0 mm 0.00 in0.0 mm
04:10 AM 26.6°F-3.0°C 23.0°F-5.0°C 86% 0.8 mph E1.3 kmh E 1.8 mph2.9 kmh 29.94 in1013.9 mb 0.00 in0.0 mm 0.00 in0.0 mm 0.00 in0.0 mm
04:05 AM 26.6°F-3.0°C 23.0°F-5.0°C 86% 0.8 mph E1.3 kmh E 1.8 mph2.9 kmh 29.95 in1014.2 mb 0.00 in0.0 mm 0.00 in0.0 mm 0.00 in0.0 mm
04:00 AM 26.6°F-3.0°C 23.0°F-5.0°C 86% 0.7 mph ESE1.1 kmh ESE 1.3 mph2.1 kmh 29.94 in1013.9 mb 0.00 in0.0 mm 0.00 in0.0 mm 0.00 in0.0 mm
03:55 AM 26.8°F-2.9°C 22.8°F-5.1°C 85% 0.8 mph SSE1.3 kmh SSE 1.3 mph2.1 kmh 29.95 in1014.2 mb 0.00 in0.0 mm 0.00 in0.0 mm 0.00 in0.0 mm
03:50 AM 26.8°F-2.9°C 22.8°F-5.1°C 85% 0.8 mph S1.3 kmh S 1.8 mph2.9 kmh 29.95 in1014.2 mb 0.00 in0.0 mm 0.00 in0.0 mm 0.00 in0.0 mm
03:45 AM 27.0°F-2.8°C 23.0°F-5.0°C 85% 0.9 mph S1.4 kmh S 1.8 mph2.9 kmh 29.95 in1014.2 mb 0.00 in0.0 mm 0.00 in0.0 mm 0.00 in0.0 mm
03:40 AM 27.0°F-2.8°C 23.0°F-5.0°C 85% 0.9 mph S1.4 kmh S 1.8 mph2.9 kmh 29.95 in1014.2 mb 0.00 in0.0 mm 0.00 in0.0 mm 0.00 in0.0 mm
03:35 AM 27.0°F-2.8°C 23.0°F-5.0°C 85% 1.1 mph S1.8 kmh S 1.8 mph2.9 kmh 29.95 in1014.2 mb 0.00 in0.0 mm 0.00 in0.0 mm 0.00 in0.0 mm
03:30 AM 27.1°F-2.7°C 23.2°F-4.9°C 85% 1.4 mph SSW2.3 kmh SSW 2.2 mph3.5 kmh 29.95 in1014.2 mb 0.00 in0.0 mm 0.00 in0.0 mm 0.00 in0.0 mm
03:25 AM 27.1°F-2.7°C 23.2°F-4.9°C 85% 1.3 mph SSW2.1 kmh SSW 2.2 mph3.5 kmh 29.95 in1014.2 mb 0.00 in0.0 mm 0.00 in0.0 mm 0.00 in0.0 mm
03:20 AM 27.3°F-2.6°C 23.4°F-4.8°C 85% 1.0 mph S1.6 kmh S 1.8 mph2.9 kmh 29.95 in1014.2 mb 0.00 in0.0 mm 0.00 in0.0 mm 0.00 in0.0 mm
03:15 AM 27.3°F-2.6°C 23.4°F-4.8°C 85% 1.1 mph S1.8 kmh S 1.8 mph2.9 kmh 29.95 in1014.2 mb 0.00 in0.0 mm 0.00 in0.0 mm 0.00 in0.0 mm
03:10 AM 27.3°F-2.6°C 23.4°F-4.8°C 85% 1.0 mph SE1.6 kmh SE 1.8 mph2.9 kmh 29.94 in1013.9 mb 0.00 in0.0 mm 0.00 in0.0 mm 0.00 in0.0 mm
03:05 AM 27.3°F-2.6°C 23.4°F-4.8°C 85% 1.1 mph E1.8 kmh E 1.8 mph2.9 kmh 29.94 in1013.9 mb 0.00 in0.0 mm 0.00 in0.0 mm 0.00 in0.0 mm
03:00 AM 27.3°F-2.6°C 23.4°F-4.8°C 85% 0.9 mph NNW1.4 kmh NNW 1.3 mph2.1 kmh 29.94 in1013.9 mb 0.00 in0.0 mm 0.00 in0.0 mm 0.00 in0.0 mm
02:55 AM 27.5°F-2.5°C 23.5°F-4.7°C 85% 1.1 mph ENE1.8 kmh ENE 2.7 mph4.3 kmh 29.94 in1013.9 mb 0.00 in0.0 mm 0.00 in0.0 mm 0.00 in0.0 mm
02:50 AM 27.5°F-2.5°C 23.5°F-4.7°C 85% 1.3 mph E2.1 kmh E 2.7 mph4.3 kmh 29.94 in1013.9 mb 0.00 in0.0 mm 0.00 in0.0 mm 0.00 in0.0 mm
02:45 AM 27.5°F-2.5°C 23.5°F-4.7°C 85% 1.1 mph ESE1.8 kmh ESE 2.2 mph3.5 kmh 29.94 in1013.9 mb 0.00 in0.0 mm 0.00 in0.0 mm 0.00 in0.0 mm
02:40 AM 27.7°F-2.4°C 23.7°F-4.6°C 85% 1.3 mph SE2.1 kmh SE 2.5 mph4.0 kmh 29.94 in1013.9 mb 0.00 in0.0 mm 0.00 in0.0 mm 0.00 in0.0 mm
02:35 AM 27.7°F-2.4°C 23.7°F-4.6°C 85% 1.2 mph SE1.9 kmh SE 2.5 mph4.0 kmh 29.94 in1013.9 mb 0.00 in0.0 mm 0.00 in0.0 mm 0.00 in0.0 mm
02:30 AM 27.7°F-2.4°C 23.7°F-4.6°C 85% 0.9 mph E1.4 kmh E 1.8 mph2.9 kmh 29.94 in1013.9 mb 0.00 in0.0 mm 0.00 in0.0 mm 0.00 in0.0 mm
02:25 AM 27.7°F-2.4°C 23.7°F-4.6°C 85% 0.8 mph ESE1.3 kmh ESE 2.0 mph3.2 kmh 29.94 in1013.9 mb 0.00 in0.0 mm 0.00 in0.0 mm 0.00 in0.0 mm
02:20 AM 27.7°F-2.4°C 23.7°F-4.6°C 85% 0.9 mph SE1.4 kmh SE 2.0 mph3.2 kmh 29.94 in1013.9 mb 0.00 in0.0 mm 0.00 in0.0 mm 0.00 in0.0 mm
02:15 AM 27.7°F-2.4°C 23.7°F-4.6°C 85% 1.1 mph S1.8 kmh S 1.8 mph2.9 kmh 29.93 in1013.5 mb 0.00 in0.0 mm 0.00 in0.0 mm 0.00 in0.0 mm
02:10 AM 27.7°F-2.4°C 23.7°F-4.6°C 85% 1.0 mph S1.6 kmh S 1.8 mph2.9 kmh 29.94 in1013.9 mb 0.00 in0.0 mm 0.00 in0.0 mm 0.00 in0.0 mm
02:05 AM 27.7°F-2.4°C 23.7°F-4.6°C 85% 1.3 mph ESE2.1 kmh ESE 2.5 mph4.0 kmh 29.94 in1013.9 mb 0.00 in0.0 mm 0.00 in0.0 mm 0.00 in0.0 mm
02:00 AM 27.7°F-2.4°C 23.7°F-4.6°C 85% 1.7 mph ESE2.7 kmh ESE 2.5 mph4.0 kmh 29.93 in1013.5 mb 0.00 in0.0 mm 0.00 in0.0 mm 0.00 in0.0 mm
01:55 AM 27.9°F-2.3°C 23.9°F-4.5°C 85% 1.2 mph ESE1.9 kmh ESE 2.2 mph3.5 kmh 29.94 in1013.9 mb 0.00 in0.0 mm 0.00 in0.0 mm 0.00 in0.0 mm
01:50 AM 27.9°F-2.3°C 23.9°F-4.5°C 85% 1.0 mph E1.6 kmh E 1.8 mph2.9 kmh 29.94 in1013.9 mb 0.00 in0.0 mm 0.00 in0.0 mm 0.00 in0.0 mm
01:45 AM 27.9°F-2.3°C 23.9°F-4.5°C 85% 1.1 mph ESE1.8 kmh ESE 1.8 mph2.9 kmh 29.94 in1013.9 mb 0.00 in0.0 mm 0.00 in0.0 mm 0.00 in0.0 mm
01:40 AM 27.9°F-2.3°C 23.9°F-4.5°C 85% 1.1 mph E1.8 kmh E 2.5 mph4.0 kmh 29.94 in1013.9 mb 0.00 in0.0 mm 0.00 in0.0 mm 0.00 in0.0 mm
01:35 AM 28.0°F-2.2°C 24.1°F-4.4°C 85% 1.0 mph ESE1.6 kmh ESE 2.5 mph4.0 kmh 29.94 in1013.9 mb 0.00 in0.0 mm 0.00 in0.0 mm 0.00 in0.0 mm
01:30 AM 28.0°F-2.2°C 24.1°F-4.4°C 85% 0.9 mph ESE1.4 kmh ESE 1.8 mph2.9 kmh 29.94 in1013.9 mb 0.00 in0.0 mm 0.00 in0.0 mm 0.00 in0.0 mm
01:25 AM 28.0°F-2.2°C 24.1°F-4.4°C 85% 0.8 mph E1.3 kmh E 1.8 mph2.9 kmh 29.94 in1013.9 mb 0.00 in0.0 mm 0.00 in0.0 mm 0.00 in0.0 mm
01:20 AM 28.0°F-2.2°C 24.1°F-4.4°C 85% 0.6 mph SE1.0 kmh SE 1.1 mph1.8 kmh 29.94 in1013.9 mb 0.00 in0.0 mm 0.00 in0.0 mm 0.00 in0.0 mm
01:15 AM 28.2°F-2.1°C 24.6°F-4.1°C 86% 0.7 mph SE1.1 kmh SE 1.1 mph1.8 kmh 29.94 in1013.9 mb 0.00 in0.0 mm 0.00 in0.0 mm 0.00 in0.0 mm
01:10 AM 28.2°F-2.1°C 24.6°F-4.1°C 86% 1.0 mph E1.6 kmh E 2.2 mph3.5 kmh 29.94 in1013.9 mb 0.00 in0.0 mm 0.00 in0.0 mm 0.00 in0.0 mm
01:05 AM 28.4°F-2.0°C 24.8°F-4.0°C 86% 1.0 mph E1.6 kmh E 2.2 mph3.5 kmh 29.94 in1013.9 mb 0.00 in0.0 mm 0.00 in0.0 mm 0.00 in0.0 mm
01:00 AM 28.4°F-2.0°C 24.8°F-4.0°C 86% 0.6 mph ESE1.0 kmh ESE 1.3 mph2.1 kmh 29.94 in1013.9 mb 0.00 in0.0 mm 0.00 in0.0 mm 0.00 in0.0 mm
12:55 AM 28.4°F-2.0°C 24.8°F-4.0°C 86% 0.8 mph SE1.3 kmh SE 1.8 mph2.9 kmh 29.94 in1013.9 mb 0.00 in0.0 mm 0.00 in0.0 mm 0.00 in0.0 mm
12:50 AM 28.4°F-2.0°C 24.8°F-4.0°C 86% 1.1 mph SE1.8 kmh SE 2.2 mph3.5 kmh 29.94 in1013.9 mb 0.00 in0.0 mm 0.00 in0.0 mm 0.00 in0.0 mm
12:45 AM 28.4°F-2.0°C 24.8°F-4.0°C 86% 1.2 mph SE1.9 kmh SE 3.4 mph5.5 kmh 29.94 in1013.9 mb 0.00 in0.0 mm 0.00 in0.0 mm 0.00 in0.0 mm
12:40 AM 28.6°F-1.9°C 25.0°F-3.9°C 86% 1.5 mph SE2.4 kmh SE 3.4 mph5.5 kmh 29.94 in1013.9 mb 0.00 in0.0 mm 0.00 in0.0 mm 0.00 in0.0 mm
12:35 AM 28.6°F-1.9°C 25.0°F-3.9°C 86% 1.4 mph ESE2.3 kmh ESE 3.1 mph5.0 kmh 29.94 in1013.9 mb 0.00 in0.0 mm 0.00 in0.0 mm 0.00 in0.0 mm
12:30 AM 28.6°F-1.9°C 25.0°F-3.9°C 86% 1.5 mph SE2.4 kmh SE 2.5 mph4.0 kmh 29.94 in1013.9 mb 0.00 in0.0 mm 0.00 in0.0 mm 0.00 in0.0 mm
12:25 AM 28.4°F-2.0°C 24.8°F-4.0°C 86% 1.5 mph ESE2.4 kmh ESE 2.5 mph4.0 kmh 29.94 in1013.9 mb 0.00 in0.0 mm 0.00 in0.0 mm 0.00 in0.0 mm
12:20 AM 28.4°F-2.0°C 24.8°F-4.0°C 86% 0.8 mph ENE1.3 kmh ENE 2.0 mph3.2 kmh 29.94 in1013.9 mb 0.00 in0.0 mm 0.00 in0.0 mm 0.00 in0.0 mm
12:15 AM 28.6°F-1.9°C 25.0°F-3.9°C 86% 0.6 mph SSW1.0 kmh SSW 1.3 mph2.1 kmh 29.94 in1013.9 mb 0.00 in0.0 mm 0.00 in0.0 mm 0.00 in0.0 mm
12:10 AM 28.6°F-1.9°C 25.0°F-3.9°C 86% 0.7 mph SSW1.1 kmh SSW 1.3 mph2.1 kmh 29.94 in1013.9 mb 0.00 in0.0 mm 0.00 in0.0 mm 0.00 in0.0 mm
12:05 AM 28.6°F-1.9°C 25.0°F-3.9°C 86% 0.6 mph S1.0 kmh S 1.1 mph1.8 kmh 29.93 in1013.5 mb 0.00 in0.0 mm 0.00 in0.0 mm 0.00 in0.0 mm
12:00 AM 28.8°F-1.8°C 25.2°F-3.8°C 86% 0.6 mph S1.0 kmh S 1.1 mph1.8 kmh 29.93 in1013.5 mb 0.00 in0.0 mm 0.00 in0.0 mm 0.00 in0.0 mm